createdAt,value
2024-02-17T00:00:01.937Z,7.70
2024-02-17T00:02:30.938Z,7.28
2024-02-17T00:07:26.036Z,5.95
2024-02-17T00:09:53.571Z,5.93
2024-02-17T00:12:21.445Z,6.50
2024-02-17T00:14:49.195Z,6.25
2024-02-17T00:17:16.911Z,6.13
2024-02-17T00:19:47.662Z,5.97
2024-02-17T00:22:15.845Z,5.80
2024-02-17T00:24:43.493Z,6.13
2024-02-17T00:27:11.436Z,6.43
2024-02-17T00:29:38.961Z,6.03
2024-02-17T00:32:06.668Z,5.43
2024-02-17T00:34:34.245Z,5.22
2024-02-17T00:37:03.669Z,4.60
2024-02-17T00:39:31.343Z,4.78
2024-02-17T00:41:58.898Z,5.30
2024-02-17T00:44:26.439Z,5.40
2024-02-17T00:46:54.242Z,5.00
2024-02-17T00:49:21.861Z,4.65
2024-02-17T00:51:49.569Z,5.28
2024-02-17T00:54:18.519Z,5.32
2024-02-17T00:59:15.891Z,4.57
2024-02-17T01:01:43.912Z,4.45
2024-02-17T01:04:11.670Z,4.82
2024-02-17T01:06:39.565Z,4.53
2024-02-17T01:09:07.413Z,5.40
2024-02-17T01:11:37.154Z,5.78
2024-02-17T01:14:04.830Z,5.10
2024-02-17T01:16:32.412Z,5.88
2024-02-17T01:19:00.218Z,5.38
2024-02-17T01:21:31.807Z,5.40
2024-02-17T01:23:59.496Z,4.75
2024-02-17T01:26:27.100Z,5.05
2024-02-17T01:28:57.040Z,5.43
2024-02-17T01:31:23.645Z,4.75
2024-02-17T01:33:52.245Z,4.90
2024-02-17T01:36:21.262Z,4.90
2024-02-17T01:41:16.183Z,4.90
2024-02-17T01:43:43.751Z,4.97
2024-02-17T01:46:12.672Z,4.97
2024-02-17T01:48:40.387Z,4.50
2024-02-17T01:51:10.168Z,4.63
2024-02-17T01:53:37.912Z,4.32
2024-02-17T01:56:06.650Z,4.47
2024-02-17T01:58:34.230Z,4.50
2024-02-17T02:01:02.088Z,4.60
2024-02-17T02:03:31.078Z,3.95
2024-02-17T02:08:26.109Z,3.80
2024-02-17T02:10:55.769Z,4.10
2024-02-17T02:13:23.710Z,4.32
2024-02-17T02:15:54.498Z,4.38
2024-02-17T02:18:23.359Z,4.10
2024-02-17T02:20:52.612Z,3.88
2024-02-17T02:25:53.553Z,3.40
2024-02-17T02:28:21.214Z,3.83
2024-02-17T02:30:49.177Z,3.67
2024-02-17T02:33:17.064Z,3.72
2024-02-17T02:35:44.926Z,4.03
2024-02-17T02:38:12.536Z,3.72
2024-02-17T02:40:40.190Z,4.18
2024-02-17T02:43:09.146Z,3.55
2024-02-17T02:48:06.897Z,3.80
2024-02-17T02:50:34.556Z,4.40
2024-02-17T02:53:02.190Z,3.83
2024-02-17T02:55:29.836Z,3.92
2024-02-17T02:57:57.444Z,3.72
2024-02-17T03:00:26.415Z,4.13
2024-02-17T03:05:21.542Z,4.22
2024-02-17T03:07:49.163Z,3.25
2024-02-17T03:10:17.068Z,3.78
2024-02-17T03:12:44.893Z,3.78
2024-02-17T03:15:12.779Z,3.50
2024-02-17T03:17:41.847Z,3.85
2024-02-17T03:20:10.234Z,3.58
2024-02-17T03:22:37.955Z,3.88
2024-02-17T03:25:06.172Z,3.83
2024-02-17T03:27:35.649Z,3.78
2024-02-17T03:30:06.142Z,3.85
2024-02-17T03:32:33.808Z,3.58
2024-02-17T03:35:04.860Z,4.32
2024-02-17T03:37:32.557Z,4.28
2024-02-17T03:40:00.296Z,4.07
2024-02-17T03:42:28.075Z,4.20
2024-02-17T03:44:55.665Z,4.20
2024-02-17T03:47:23.216Z,4.40
2024-02-17T03:49:50.849Z,4.43
2024-02-17T03:52:19.838Z,4.15
2024-02-17T03:57:18.047Z,4.50
2024-02-17T03:59:45.584Z,4.03
2024-02-17T04:02:13.101Z,4.28
2024-02-17T04:04:41.493Z,4.22
2024-02-17T04:07:09.233Z,3.85
2024-02-17T04:09:38.209Z,4.30
2024-02-17T04:14:33.497Z,4.40
2024-02-17T04:17:01.071Z,4.05
2024-02-17T04:19:28.920Z,3.80
2024-02-17T04:21:56.619Z,3.50
2024-02-17T04:24:24.307Z,4.00
2024-02-17T04:26:53.248Z,3.88
2024-02-17T04:34:16.779Z,4.13
2024-02-17T04:36:44.504Z,4.35
2024-02-17T04:39:14.224Z,3.75
2024-02-17T04:41:42.023Z,4.10
2024-02-17T04:44:10.933Z,4.35
2024-02-17T04:46:38.537Z,3.58
2024-02-17T04:49:06.187Z,4.43
2024-02-17T04:51:35.784Z,4.80
2024-02-17T04:54:04.468Z,4.40
2024-02-17T04:56:32.066Z,4.20
2024-02-17T04:58:59.671Z,4.85
2024-02-17T05:01:28.697Z,4.07
2024-02-17T05:03:56.402Z,4.60
2024-02-17T05:06:24.099Z,3.78
2024-02-17T05:08:51.690Z,3.90
2024-02-17T05:11:19.392Z,4.18
2024-02-17T05:13:47.073Z,4.03
2024-02-17T05:16:14.597Z,4.13
2024-02-17T05:18:43.585Z,4.65
2024-02-17T05:21:11.458Z,4.20
2024-02-17T05:23:39.158Z,4.22
2024-02-17T05:26:06.760Z,4.40
2024-02-17T05:28:34.332Z,4.15
2024-02-17T05:31:02.057Z,4.72
2024-02-17T05:33:29.768Z,4.63
2024-02-17T05:35:58.848Z,4.35
2024-02-17T05:38:27.120Z,4.18
2024-02-17T05:40:54.715Z,5.30
2024-02-17T05:43:22.291Z,5.85
2024-02-17T05:45:49.904Z,4.90
2024-02-17T05:48:17.699Z,5.05
2024-02-17T05:50:45.670Z,5.20
2024-02-17T05:53:14.705Z,5.30
2024-02-17T05:55:42.314Z,5.55
2024-02-17T05:58:09.882Z,5.25
2024-02-17T06:00:37.518Z,5.40
2024-02-17T06:03:05.530Z,5.68
2024-02-17T06:05:33.990Z,5.35
2024-02-17T06:08:01.550Z,5.95
2024-02-17T06:10:30.560Z,6.22
2024-02-17T06:15:26.030Z,5.63
2024-02-17T06:18:13.706Z,6.63
2024-02-17T06:20:58.782Z,6.10
2024-02-17T06:23:26.309Z,6.05
2024-02-17T06:25:55.163Z,6.80
2024-02-17T06:28:22.708Z,6.50
2024-02-17T06:30:50.345Z,6.43
2024-02-17T06:33:17.999Z,5.70
2024-02-17T06:35:45.554Z,6.00
2024-02-17T06:38:13.127Z,6.55
2024-02-17T06:40:40.624Z,6.43
2024-02-17T06:43:09.486Z,6.50
2024-02-17T06:45:39.882Z,7.28
2024-02-17T06:48:08.175Z,6.95
2024-02-17T06:50:35.731Z,5.85
2024-02-17T06:53:03.267Z,5.82
2024-02-17T06:55:30.794Z,5.72
2024-02-17T06:57:58.363Z,5.93
2024-02-17T07:00:27.222Z,6.30
2024-02-17T07:02:54.755Z,6.35
2024-02-17T07:05:22.369Z,6.00
2024-02-17T07:07:49.934Z,5.60
2024-02-17T07:10:17.702Z,5.93
2024-02-17T07:12:45.346Z,5.68
2024-02-17T07:15:13.166Z,5.68
2024-02-17T07:17:42.214Z,6.15
2024-02-17T07:20:10.721Z,6.50
2024-02-17T07:22:38.541Z,7.55
2024-02-17T07:25:06.978Z,6.63
2024-02-17T07:27:34.544Z,6.45
2024-02-17T07:30:02.362Z,6.65
2024-02-17T07:32:31.167Z,6.95
2024-02-17T07:35:00.248Z,7.18
2024-02-17T07:39:55.169Z,6.25
2024-02-17T07:42:23.818Z,6.95
2024-02-17T07:44:51.421Z,6.68
2024-02-17T07:47:19.229Z,6.32
2024-02-17T07:49:46.877Z,6.97
2024-02-17T07:52:15.820Z,7.03
2024-02-17T07:54:43.376Z,6.43
2024-02-17T07:57:10.920Z,7.30
2024-02-17T07:59:40.124Z,7.15
2024-02-17T08:02:07.698Z,6.65
2024-02-17T08:04:35.665Z,6.13
2024-02-17T08:07:03.286Z,7.25
2024-02-17T08:09:32.902Z,6.45
2024-02-17T08:12:00.567Z,6.75
2024-02-17T08:14:30.537Z,7.30
2024-02-17T08:16:58.498Z,6.03
2024-02-17T08:19:26.234Z,6.88
2024-02-17T08:21:53.917Z,7.50
2024-02-17T08:24:21.543Z,7.15
2024-02-17T08:26:50.420Z,6.38
2024-02-17T08:29:19.251Z,7.05
2024-02-17T08:31:51.660Z,7.57
2024-02-17T08:34:19.849Z,6.55
2024-02-17T08:36:47.700Z,7.35
2024-02-17T08:39:15.793Z,6.70
2024-02-17T08:41:43.441Z,7.70
2024-02-17T08:44:14.471Z,6.28
2024-02-17T08:46:42.464Z,6.97
2024-02-17T08:49:10.108Z,7.57
2024-02-17T08:51:38.086Z,6.88
2024-02-17T08:54:05.740Z,6.15
2024-02-17T08:56:33.286Z,7.32
2024-02-17T08:59:00.848Z,6.75
2024-02-17T09:01:29.920Z,7.05
2024-02-17T09:03:57.635Z,6.05
2024-02-17T09:06:25.388Z,6.85
2024-02-17T09:08:52.973Z,6.70
2024-02-17T09:11:20.581Z,6.28
2024-02-17T09:13:48.484Z,6.32
2024-02-17T09:16:16.037Z,6.38
2024-02-17T09:18:45.041Z,7.13
2024-02-17T09:21:12.660Z,5.82
2024-02-17T09:23:40.225Z,6.30
2024-02-17T09:26:07.773Z,6.18
2024-02-17T09:28:35.335Z,6.13
2024-02-17T09:31:03.061Z,6.50
2024-02-17T09:33:31.249Z,5.40
2024-02-17T09:36:00.273Z,6.00
2024-02-17T09:38:27.820Z,5.90
2024-02-17T09:40:55.569Z,6.05
2024-02-17T09:43:24.907Z,6.13
2024-02-17T09:45:52.440Z,6.70
2024-02-17T09:48:21.430Z,5.88
2024-02-17T09:50:50.657Z,6.45
2024-02-17T09:53:19.524Z,6.13
2024-02-17T09:55:48.299Z,6.22
2024-02-17T09:58:15.896Z,5.22
2024-02-17T10:00:43.457Z,5.70
2024-02-17T10:03:11.211Z,5.55
2024-02-17T10:05:38.878Z,5.82
2024-02-17T10:08:08.028Z,5.10
2024-02-17T10:10:36.926Z,5.35
2024-02-17T10:13:04.623Z,5.03
2024-02-17T10:15:33.505Z,4.45
2024-02-17T10:20:28.772Z,4.10
2024-02-17T10:22:56.313Z,4.00
2024-02-17T10:25:25.426Z,4.70
2024-02-17T10:27:54.776Z,3.97
2024-02-17T10:30:22.946Z,4.32
2024-02-17T10:32:50.820Z,4.07
2024-02-17T10:35:18.635Z,3.78
2024-02-17T10:37:46.753Z,4.13
2024-02-17T10:40:15.274Z,3.85
2024-02-17T10:42:44.985Z,3.88
2024-02-17T10:45:13.955Z,4.30
2024-02-17T10:50:15.524Z,4.05
2024-02-17T10:52:45.468Z,3.88
2024-02-17T10:55:14.510Z,3.50
2024-02-17T11:00:20.381Z,3.75
2024-02-17T11:02:49.187Z,3.67
2024-02-17T11:05:16.827Z,3.67
2024-02-17T11:07:44.824Z,3.25
2024-02-17T11:10:13.164Z,3.78
2024-02-17T11:12:40.961Z,3.63
2024-02-17T11:15:10.612Z,4.38
2024-02-17T11:17:42.425Z,4.05
2024-02-17T11:20:13.283Z,3.80
2024-02-17T11:22:42.313Z,3.80
2024-02-17T11:25:10.896Z,3.55
2024-02-17T11:27:43.040Z,3.70
2024-02-17T11:30:11.461Z,3.70
2024-02-17T11:32:40.515Z,3.83
2024-02-17T11:35:09.545Z,3.72
2024-02-17T11:37:37.385Z,3.40
2024-02-17T11:40:05.753Z,3.38
2024-02-17T11:42:33.343Z,3.40
2024-02-17T11:45:01.590Z,4.18
2024-02-17T11:47:31.278Z,3.08
2024-02-17T11:50:16.464Z,3.33
2024-02-17T11:52:44.135Z,3.30
2024-02-17T11:55:14.030Z,3.53
2024-02-17T11:57:41.890Z,3.40
2024-02-17T12:00:20.728Z,3.42
2024-02-17T12:02:51.089Z,3.40
2024-02-17T12:05:22.048Z,2.97
2024-02-17T12:07:50.124Z,3.20
2024-02-17T12:10:17.749Z,3.17
2024-02-17T12:12:45.340Z,3.83
2024-02-17T12:15:14.156Z,3.20
2024-02-17T12:17:45.843Z,3.75
2024-02-17T12:20:14.603Z,3.80
2024-02-17T12:22:47.060Z,3.15
2024-02-17T12:25:16.190Z,3.40
2024-02-17T12:27:43.909Z,3.67
2024-02-17T12:30:14.791Z,3.53
2024-02-17T12:32:42.549Z,4.40
2024-02-17T12:35:14.192Z,5.15
2024-02-17T12:37:44.501Z,3.72
2024-02-17T12:40:15.386Z,3.30
2024-02-17T12:42:43.488Z,3.22
2024-02-17T12:45:25.321Z,4.10
2024-02-17T12:50:23.205Z,3.80
2024-02-17T12:52:53.311Z,3.42
2024-02-17T12:55:20.856Z,4.80
2024-02-17T12:57:48.647Z,4.85
2024-02-17T13:00:17.014Z,3.90
2024-02-17T13:02:44.622Z,3.40
2024-02-17T13:05:12.400Z,3.25
2024-02-17T13:07:41.462Z,3.30
2024-02-17T13:12:38.350Z,2.80
2024-02-17T13:15:07.538Z,3.00
2024-02-17T13:17:35.124Z,3.05
2024-02-17T13:20:05.194Z,3.40
2024-02-17T13:22:32.926Z,3.30
2024-02-17T13:25:00.599Z,3.20
2024-02-17T13:27:29.704Z,4.70
2024-02-17T13:29:57.395Z,3.70
2024-02-17T13:32:27.264Z,5.03
2024-02-17T13:34:54.933Z,4.63
2024-02-17T13:37:22.535Z,4.40
2024-02-17T13:39:50.130Z,4.50
2024-02-17T13:42:17.658Z,4.43
2024-02-17T13:44:46.504Z,4.22
2024-02-17T13:47:14.052Z,4.07
2024-02-17T13:49:41.592Z,3.22
2024-02-17T13:52:09.206Z,4.32
2024-02-17T13:54:36.829Z,4.43
2024-02-17T13:57:04.818Z,3.78
2024-02-17T13:59:33.762Z,3.60
2024-02-17T14:02:02.671Z,3.28
2024-02-17T14:06:58.303Z,4.65
2024-02-17T14:09:25.990Z,3.35
2024-02-17T14:11:53.654Z,3.55
2024-02-17T14:14:21.147Z,3.75
2024-02-17T14:16:48.693Z,3.95
2024-02-17T14:19:18.417Z,3.33
2024-02-17T14:21:46.116Z,3.28
2024-02-17T14:24:13.691Z,3.08
2024-02-17T14:26:41.666Z,3.08
2024-02-17T14:29:09.403Z,3.17
2024-02-17T14:31:41.377Z,3.05
2024-02-17T14:34:09.006Z,3.42
2024-02-17T14:36:37.956Z,3.13
2024-02-17T14:41:32.907Z,3.00
2024-02-17T14:44:00.424Z,2.80
2024-02-17T14:46:35.345Z,3.00
2024-02-17T14:51:31.835Z,3.28
2024-02-17T14:54:00.714Z,2.90
2024-02-17T14:56:28.202Z,2.85
2024-02-17T14:58:55.814Z,3.10
2024-02-17T15:01:24.262Z,3.28
2024-02-17T15:03:52.308Z,3.13
2024-02-17T15:06:20.755Z,3.47
2024-02-17T15:08:48.395Z,3.20
2024-02-17T15:11:18.088Z,2.78
2024-02-17T15:13:46.984Z,3.30
2024-02-17T15:18:42.196Z,2.92
2024-02-17T15:21:10.569Z,2.65
2024-02-17T15:23:38.209Z,3.17
2024-02-17T15:26:06.217Z,2.83
2024-02-17T15:28:35.191Z,3.35
2024-02-17T15:31:02.843Z,3.33
2024-02-17T15:33:30.500Z,2.92
2024-02-17T15:35:58.160Z,3.70
2024-02-17T15:38:26.731Z,3.50
2024-02-17T15:40:55.835Z,2.95
2024-02-17T15:43:23.419Z,2.72
2024-02-17T15:45:52.398Z,3.20
2024-02-17T15:48:20.031Z,3.20
2024-02-17T15:50:47.574Z,2.88
2024-02-17T15:53:15.101Z,2.90
2024-02-17T15:55:42.669Z,3.30
2024-02-17T15:58:10.205Z,3.25
2024-02-17T16:00:37.847Z,3.30
2024-02-17T16:03:06.852Z,2.83
2024-02-17T16:05:35.502Z,3.20
2024-02-17T16:08:04.046Z,2.95
2024-02-17T16:10:31.692Z,2.97
2024-02-17T16:12:59.345Z,3.35
2024-02-17T16:15:26.880Z,3.15
2024-02-17T16:17:54.825Z,2.92
2024-02-17T16:20:23.753Z,2.85
2024-02-17T16:22:51.294Z,3.05
2024-02-17T16:25:18.819Z,3.28
2024-02-17T16:27:46.341Z,3.22
2024-02-17T16:30:14.269Z,2.90
2024-02-17T16:32:41.923Z,3.10
2024-02-17T16:35:10.450Z,3.28
2024-02-17T16:37:41.961Z,2.72
2024-02-17T16:40:10.543Z,3.33
2024-02-17T16:42:38.130Z,3.40
2024-02-17T16:45:07.777Z,3.33
2024-02-17T16:47:35.383Z,3.63
2024-02-17T16:50:03.025Z,3.50
2024-02-17T16:52:30.570Z,3.70
2024-02-17T16:54:59.554Z,4.28
2024-02-17T16:58:31.670Z,3.90
2024-02-17T17:01:02.573Z,3.72
2024-02-17T17:03:30.978Z,3.83
2024-02-17T17:05:59.902Z,3.75
2024-02-17T17:10:56.199Z,3.08
2024-02-17T17:15:51.290Z,3.28
2024-02-17T17:18:19.220Z,3.75
2024-02-17T17:20:46.880Z,3.20
2024-02-17T17:23:14.387Z,3.97
2024-02-17T17:25:45.409Z,3.50
2024-02-17T17:28:14.487Z,3.35
2024-02-17T17:30:42.252Z,3.40
2024-02-17T17:33:09.994Z,3.55
2024-02-17T17:35:37.590Z,3.47
2024-02-17T17:38:05.301Z,3.40
2024-02-17T17:40:32.820Z,4.32
2024-02-17T17:43:06.473Z,3.97
2024-02-17T17:45:37.877Z,3.85
2024-02-17T17:48:06.143Z,3.90
2024-02-17T17:50:33.716Z,4.50
2024-02-17T17:53:01.407Z,3.35
2024-02-17T17:55:29.010Z,3.78
2024-02-17T17:57:56.700Z,3.70
2024-02-17T18:00:24.559Z,5.30
2024-02-17T18:02:54.572Z,5.40
2024-02-17T18:05:22.271Z,5.78
2024-02-17T18:07:50.218Z,5.63
2024-02-17T18:10:18.350Z,6.07
2024-02-17T18:12:45.872Z,4.82
2024-02-17T18:15:13.488Z,4.55
2024-02-17T18:17:41.309Z,4.55
2024-02-17T18:20:12.699Z,4.75
2024-02-17T18:22:40.274Z,4.18
2024-02-17T18:25:09.059Z,4.97
2024-02-17T18:27:36.687Z,4.63
2024-02-17T18:30:04.668Z,5.60
2024-02-17T18:32:32.328Z,5.53
2024-02-17T18:35:00.842Z,5.20
2024-02-17T18:37:30.487Z,5.78
2024-02-17T18:39:58.044Z,5.25
2024-02-17T18:42:27.236Z,5.10
2024-02-17T18:44:54.785Z,5.97
2024-02-17T18:47:22.363Z,6.15
2024-02-17T18:49:51.190Z,5.00
2024-02-17T18:52:18.806Z,4.90
2024-02-17T18:54:47.752Z,5.03
2024-02-17T18:59:42.730Z,5.28
2024-02-17T19:02:11.166Z,5.53
2024-02-17T19:04:38.882Z,5.70
2024-02-17T19:07:06.508Z,10.57
2024-02-17T19:09:35.566Z,9.23
2024-02-17T19:12:05.140Z,6.88
2024-02-17T19:14:32.846Z,5.55
2024-02-17T19:17:00.405Z,5.80
2024-02-17T19:19:28.133Z,6.30
2024-02-17T19:21:55.736Z,6.10
2024-02-17T19:24:23.620Z,6.05
2024-02-17T19:26:51.175Z,6.70
2024-02-17T19:29:20.149Z,6.53
2024-02-17T19:34:15.218Z,6.38
2024-02-17T19:36:42.841Z,5.97
2024-02-17T19:39:10.828Z,5.78
2024-02-17T19:41:38.387Z,6.13
2024-02-17T19:44:06.666Z,5.32
2024-02-17T19:46:35.750Z,5.75
2024-02-17T19:49:06.335Z,5.75
2024-02-17T19:51:33.993Z,6.30
2024-02-17T19:54:01.539Z,6.32
2024-02-17T19:56:29.070Z,6.60
2024-02-17T19:58:56.620Z,7.20
2024-02-17T20:01:25.570Z,7.60
2024-02-17T20:03:55.399Z,6.80
2024-02-17T20:06:23.209Z,6.20
2024-02-17T20:08:50.869Z,6.05
2024-02-17T20:11:18.493Z,6.22
2024-02-17T20:13:46.078Z,5.93
2024-02-17T20:16:13.763Z,6.13
2024-02-17T20:18:41.612Z,5.00
2024-02-17T20:21:11.668Z,5.60
2024-02-17T20:23:39.513Z,5.97
2024-02-17T20:26:07.132Z,5.85
2024-02-17T20:28:34.667Z,6.13
2024-02-17T20:31:02.263Z,5.53
2024-02-17T20:33:30.085Z,5.38
2024-02-17T20:35:58.676Z,5.40
2024-02-17T20:38:27.543Z,6.40
2024-02-17T20:40:55.136Z,5.88
2024-02-17T20:43:22.644Z,5.72
2024-02-17T20:45:50.325Z,5.10
2024-02-17T20:48:18.886Z,5.15
2024-02-17T20:50:46.764Z,5.10
2024-02-17T20:53:14.312Z,4.70
2024-02-17T20:55:43.208Z,4.78
2024-02-17T20:58:11.626Z,5.00
2024-02-17T21:00:41.182Z,4.60
2024-02-17T21:03:09.697Z,5.05
2024-02-17T21:05:37.664Z,7.28
2024-02-17T21:08:05.967Z,7.45
2024-02-17T21:10:33.495Z,6.65
2024-02-17T21:13:02.577Z,5.45
2024-02-17T21:15:30.204Z,5.43
2024-02-17T21:17:57.931Z,5.63
2024-02-17T21:20:25.515Z,4.72
2024-02-17T21:22:53.030Z,4.57
2024-02-17T21:25:22.012Z,4.28
2024-02-17T21:27:51.157Z,3.83
2024-02-17T21:30:20.604Z,4.53
2024-02-17T21:32:48.548Z,4.60
2024-02-17T21:35:16.157Z,4.20
2024-02-17T21:37:43.799Z,3.97
2024-02-17T21:40:12.025Z,4.10
2024-02-17T21:42:39.672Z,3.72
2024-02-17T21:45:10.674Z,3.00
2024-02-17T21:47:41.478Z,3.60
2024-02-17T21:50:11.371Z,3.08
2024-02-17T21:52:38.925Z,3.15
2024-02-17T21:55:06.957Z,3.70
2024-02-17T21:57:34.577Z,3.97
2024-02-17T22:00:02.341Z,3.20
2024-02-17T22:02:29.863Z,3.47
2024-02-17T22:04:58.805Z,3.67
2024-02-17T22:09:59.235Z,4.03
2024-02-17T22:12:27.550Z,3.00
2024-02-17T22:14:55.889Z,3.08
2024-02-17T22:17:23.419Z,3.20
2024-02-17T22:19:51.942Z,3.10
2024-02-17T22:22:21.033Z,3.53
2024-02-17T22:24:50.933Z,3.42
2024-02-17T22:27:18.553Z,3.60
2024-02-17T22:29:46.629Z,3.30
2024-02-17T22:32:14.742Z,3.20
2024-02-17T22:34:42.382Z,2.67
2024-02-17T22:37:09.953Z,2.80
2024-02-17T22:39:38.921Z,3.00
2024-02-17T22:42:06.557Z,2.78
2024-02-17T22:44:34.563Z,3.30
2024-02-17T22:47:02.092Z,3.00
2024-02-17T22:49:29.863Z,3.35
2024-02-17T22:51:57.603Z,4.03
2024-02-17T22:54:25.256Z,3.47
2024-02-17T22:56:54.232Z,3.30
2024-02-17T22:59:21.735Z,2.65
2024-02-17T23:01:49.357Z,3.15
2024-02-17T23:04:17.125Z,3.20
2024-02-17T23:06:46.292Z,3.35
2024-02-17T23:09:13.977Z,3.30
2024-02-17T23:11:41.776Z,3.10
2024-02-17T23:14:11.814Z,3.33
2024-02-17T23:16:41.593Z,4.38
2024-02-17T23:19:11.487Z,3.92
2024-02-17T23:21:45.542Z,3.80
2024-02-17T23:24:14.717Z,3.60
2024-02-17T23:26:42.241Z,3.63
2024-02-17T23:29:13.061Z,3.63
2024-02-17T23:31:40.607Z,4.00
2024-02-17T23:34:08.428Z,4.13
2024-02-17T23:36:36.113Z,3.85
2024-02-17T23:39:03.684Z,3.85
2024-02-17T23:41:34.355Z,3.88
2024-02-17T23:44:01.854Z,3.35
2024-02-17T23:46:30.718Z,3.50
2024-02-17T23:48:58.305Z,3.88
2024-02-17T23:51:25.904Z,3.33
2024-02-17T23:53:53.441Z,3.35
2024-02-17T23:56:20.976Z,3.85
2024-02-17T23:58:48.474Z,3.33
